Terminal Aerodrome Forecast
Issued by NWS Cleveland, OH

Home | Current Version | Previous Version | Graphics & Text | Print | Product List | Glossary Off
Versions: 1 2 3 4 5 6 7 8 9 10 11 12 13 14 15

827
FTUS41 KCLE 050524
TAFMFD
TAF
KMFD 050524Z 0506/0606 27005KT P6SM OVC030
      TEMPO 0506/0509 OVC035
     FM050900 27005KT P6SM SCT030
     FM051600 25005KT P6SM SCT025 OVC050=

USA.gov is the U.S. government's official web portal to all federal, state and local government web resources and services.